Time;durP1;ratioP1;P1;durP2;ratioP2;P2;SDS_P1;SDS_P2;PMS_P1;PMS_P2;Temp;Humidity;BMP_temperature;BMP_pressure;BME280_temperature;BME280_humidity;BME280_pressure;Samples;Min_cycle;Max_cycle;Signal;HPM_P1;HPM_P2
2023/06/18 00:02:16;;;;;;;8.10;7.30;;;;;;;21.44;42.39;95459.16;6092531;23;20164;-90
2023/06/18 00:04:49;;;;;;;11.55;7.72;;;;;;;21.43;42.50;95460.19;6092464;23;20692;-90
2023/06/18 00:07:28;;;;;;;8.93;8.07;;;;;;;21.45;42.41;95463.34;6091668;23;20676;-90
2023/06/18 00:10:04;;;;;;;7.85;7.15;;;;;;;21.39;42.68;95464.34;6093026;23;20219;-90
2023/06/18 00:12:31;;;;;;;8.23;7.40;;;;;;;21.42;42.63;95458.59;6093492;23;20160;-91
2023/06/18 00:15:20;;;;;;;7.30;6.70;;;;;;;21.40;42.70;95462.50;6092391;23;20201;-90
2023/06/18 00:18:00;;;;;;;9.00;7.55;;;;;;;21.43;42.51;95465.44;6092228;23;20203;-90
2023/06/18 00:23:18;;;;;;;9.20;7.32;;;;;;;21.42;43.02;95455.97;6090884;23;20172;-89
2023/06/18 00:25:50;;;;;;;8.85;6.78;;;;;;;21.46;42.74;95458.91;6092427;23;20247;-91
2023/06/18 00:28:25;;;;;;;7.97;7.13;;;;;;;21.44;42.78;95467.00;6092818;23;20255;-91
2023/06/18 00:31:15;;;;;;;7.20;6.60;;;;;;;21.41;43.07;95470.13;6092588;23;20160;-90
2023/06/18 00:33:46;;;;;;;8.13;7.32;;;;;;;21.28;43.22;95462.66;6091739;23;20259;-90
2023/06/18 00:36:26;;;;;;;7.88;7.18;;;;;;;21.35;42.91;95463.28;6092311;23;20702;-90
2023/06/18 00:38:58;;;;;;;8.32;6.72;;;;;;;21.35;43.03;95460.66;6092109;23;20176;-90
2023/06/18 00:41:38;;;;;;;7.72;7.05;;;;;;;21.35;43.12;95460.66;6092418;23;20489;-89
2023/06/18 00:44:08;;;;;;;7.13;6.43;;;;;;;21.31;42.95;95459.56;6091713;23;20671;-90
2023/06/18 00:46:51;;;;;;;9.57;6.88;;;;;;;21.11;44.08;95459.31;6091835;23;20180;-90
2023/06/18 00:49:21;;;;;;;7.93;7.22;;;;;;;21.03;44.14;95450.03;6091643;23;20575;-90
2023/06/18 00:51:57;;;;;;;7.47;6.78;;;;;;;21.08;43.92;95457.16;6091946;23;20557;-91
2023/06/18 00:54:38;;;;;;;7.60;6.85;;;;;;;21.09;43.64;95454.31;6092426;23;20192;-90
2023/06/18 00:57:13;;;;;;;7.13;6.43;;;;;;;21.15;43.69;95453.34;6092401;23;20164;-90
2023/06/18 01:00:19;;;;;;;7.43;6.72;;;;;;;21.09;43.67;95458.75;6092903;23;20172;-90
2023/06/18 01:03:20;;;;;;;8.20;7.40;;;;;;;20.99;44.20;95448.94;6092471;23;20172;-90
2023/06/18 01:06:06;;;;;;;7.85;7.15;;;;;;;20.87;43.90;95445.69;6087705;23;20282;-90
2023/06/18 01:08:48;;;;;;;7.10;6.50;;;;;;;20.81;44.09;95450.06;6090941;23;20176;-90
2023/06/18 01:11:37;;;;;;;7.85;7.15;;;;;;;20.79;44.08;95448.69;6091642;23;20208;-90
2023/06/18 01:14:09;;;;;;;7.35;6.70;;;;;;;20.71;44.04;95443.91;6091709;23;20543;-91
2023/06/18 01:16:57;;;;;;;7.95;6.63;;;;;;;20.67;44.29;95446.22;6091839;23;20172;-90
2023/06/18 01:19:55;;;;;;;7.60;7.00;;;;;;;20.54;45.17;95443.97;6092089;23;20167;-90
2023/06/18 01:22:42;;;;;;;7.40;6.80;;;;;;;20.49;44.88;95446.50;6091996;23;20168;-90
2023/06/18 01:25:22;;;;;;;7.97;6.90;;;;;;;20.53;44.36;95447.63;6090770;23;20199;-89
2023/06/18 01:28:10;;;;;;;8.55;6.90;;;;;;;20.46;44.42;95449.59;6091713;23;20237;-90
2023/06/18 01:30:54;;;;;;;;;;;;;;;;;;;;;
2023/06/18 01:33:33;;;;;;;7.53;6.88;;;;;;;20.29;44.78;95445.16;6092090;23;20176;-91
2023/06/18 01:36:30;;;;;;;7.78;7.07;;;;;;;20.27;45.30;95443.81;6090661;23;20196;-90
2023/06/18 01:45:15;;;;;;;7.47;6.70;;;;;;;20.17;45.11;95439.25;6090824;23;20198;-90
2023/06/18 01:47:56;;;;;;;7.85;6.25;;;;;;;20.17;44.86;95448.91;6091769;23;20186;-89
2023/06/18 01:50:31;;;;;;;7.40;6.80;;;;;;;20.15;44.44;95446.53;6091416;23;20302;-91
2023/06/18 01:56:13;;;;;;;6.88;6.18;;;;;;;20.25;43.67;95440.66;6088084;23;20188;-89
2023/06/18 02:02:04;;;;;;;;;;;;;;;;;;;;;
2023/06/18 02:04:43;;;;;;;7.10;6.38;;;;;;;20.42;42.34;95449.28;6091249;23;20192;-89
2023/06/18 02:07:18;;;;;;;7.03;6.28;;;;;;;20.44;42.32;95442.00;6090441;23;20176;-90
2023/06/18 02:10:14;;;;;;;7.13;6.38;;;;;;;20.45;42.39;95448.00;6091359;23;20167;-89
2023/06/18 02:12:57;;;;;;;6.88;6.22;;;;;;;20.46;42.53;95453.00;6086821;23;20172;-90
2023/06/18 02:15:30;;;;;;;8.23;6.22;;;;;;;20.44;42.36;95447.22;6091928;23;20192;-90
2023/06/18 02:20:57;;;;;;;6.90;6.30;;;;;;;20.44;42.48;95442.00;6088216;23;20519;-89
2023/06/18 02:23:39;;;;;;;6.75;6.05;;;;;;;20.30;42.59;95444.13;6091983;23;20165;-90
2023/06/18 02:29:03;;;;;;;6.95;6.35;;;;;;;20.26;42.43;95444.84;6090176;23;20176;-89
2023/06/18 02:31:36;;;;;;;10.55;6.47;;;;;;;20.30;42.39;95445.97;6091095;23;20171;-89
2023/06/18 02:34:10;;;;;;;6.25;5.75;;;;;;;20.29;42.53;95441.75;6091224;23;20258;-90
2023/06/18 02:40:08;;;;;;;6.95;6.35;;;;;;;20.29;43.45;95439.94;6090879;23;20180;-90
2023/06/18 02:43:01;;;;;;;6.75;5.97;;;;;;;20.20;43.55;95438.78;6090786;23;20183;-90
2023/06/18 02:48:32;;;;;;;7.70;6.90;;;;;;;20.12;43.71;95441.00;6089268;23;20555;-89
2023/06/18 02:51:16;;;;;;;6.88;6.35;;;;;;;20.08;44.47;95442.50;6091409;23;20184;-91
2023/06/18 02:54:09;;;;;;;6.85;6.20;;;;;;;19.97;44.62;95444.19;6091555;23;20639;-90
2023/06/18 02:59:49;;;;;;;7.28;6.50;;;;;;;19.76;45.26;95437.06;6090759;23;20176;-92
2023/06/18 03:02:39;;;;;;;7.55;6.57;;;;;;;19.74;44.96;95433.88;6060820;23;20176;-90
2023/06/18 03:08:06;;;;;;;6.95;6.32;;;;;;;19.70;45.13;95433.56;6086662;23;20259;-89
2023/06/18 03:10:42;;;;;;;6.82;6.22;;;;;;;19.59;45.11;95440.44;6091427;23;20200;-90
2023/06/18 03:18:43;;;;;;;7.25;6.63;;;;;;;19.68;44.06;95448.66;6091040;23;20173;-89
2023/06/18 03:21:28;;;;;;;;;;;;;;;;;;;;;
2023/06/18 03:24:09;;;;;;;6.63;5.85;;;;;;;19.81;43.71;95440.53;6065355;23;20251;-92
2023/06/18 03:29:55;;;;;;;6.63;6.03;;;;;;;19.74;43.51;95441.72;6086453;23;20176;-90
2023/06/18 03:32:46;;;;;;;6.50;5.75;;;;;;;19.74;43.43;95437.28;6074807;23;20180;-90
2023/06/18 03:38:09;;;;;;;7.38;6.20;;;;;;;19.79;43.21;95433.97;6092197;23;20758;-88
2023/06/18 03:40:35;;;;;;;7.93;5.85;;;;;;;19.80;43.08;95432.94;6092760;23;20204;-90
2023/06/18 03:43:21;;;;;;;6.95;6.35;;;;;;;19.81;43.08;95429.28;6092885;23;20736;-91
2023/06/18 03:45:59;;;;;;;7.18;6.40;;;;;;;19.80;42.74;95438.16;6092057;23;20532;-90
2023/06/18 03:48:56;;;;;;;6.97;6.28;;;;;;;19.80;43.00;95441.56;6092753;23;20694;-90
2023/06/18 03:51:55;;;;;;;6.80;6.18;;;;;;;19.88;42.97;95435.94;6092506;23;20683;-90
2023/06/18 03:54:41;;;;;;;6.97;6.30;;;;;;;19.97;42.88;95436.34;6092779;23;20188;-91
2023/06/18 03:57:27;;;;;;;6.47;5.90;;;;;;;19.93;43.24;95440.44;6092981;23;20183;-89
2023/06/18 04:00:07;;;;;;;6.70;6.10;;;;;;;19.88;43.15;95435.94;6092953;23;20175;-90
2023/06/18 04:02:55;;;;;;;6.47;5.88;;;;;;;19.94;42.40;95439.41;6092071;23;20172;-90
2023/06/18 04:05:44;;;;;;;7.18;6.47;;;;;;;20.01;42.31;95437.44;6060036;23;20729;-89
2023/06/18 04:11:53;;;;;;;6.53;5.82;;;;;;;20.10;41.87;95443.06;6073973;23;20191;-90
2023/06/18 04:14:30;;;;;;;6.70;6.10;;;;;;;20.09;41.89;95431.00;6092335;23;20283;-90
2023/06/18 04:20:05;;;;;;;6.75;6.00;;;;;;;20.20;41.91;95443.22;6090392;23;20180;-90
2023/06/18 04:23:11;;;;;;;6.32;5.70;;;;;;;20.24;41.64;95436.44;6094008;23;20177;-89
2023/06/18 04:26:23;;;;;;;6.45;5.95;;;;;;;20.25;41.76;95441.44;6061689;23;20196;-91
2023/06/18 04:31:57;;;;;;;6.40;5.90;;;;;;;20.41;41.38;95446.91;6090454;23;20180;-91
2023/06/18 04:41:28;;;;;;;7.18;6.07;;;;;;;20.48;41.27;95442.31;6091304;23;20231;-90
2023/06/18 04:47:03;;;;;;;6.82;6.25;;;;;;;20.52;41.18;95448.66;6082181;23;20264;-91
2023/06/18 04:49:54;;;;;;;6.63;6.03;;;;;;;20.58;41.54;95445.06;6093571;23;20157;-91
2023/06/18 04:52:35;;;;;;;7.18;5.75;;;;;;;20.73;41.75;95447.09;6093022;23;20192;-89
2023/06/18 04:55:19;;;;;;;6.13;5.63;;;;;;;20.82;41.38;95445.59;6093090;23;20197;-89
2023/06/18 04:58:46;;;;;;;;;;;;;;;;;;;;;
2023/06/18 05:01:32;;;;;;;7.20;6.40;;;;;;;21.04;41.88;95457.66;6035768;23;20179;-91
2023/06/18 05:03:59;;;;;;;6.40;5.80;;;;;;;21.27;46.46;95455.84;6095156;23;20236;-85
2023/06/18 05:06:27;;;;;;;8.52;6.07;;;;;;;21.60;46.49;95454.84;6094698;23;20200;-87
2023/06/18 05:08:54;;;;;;;8.57;5.97;;;;;;;21.89;45.78;95456.16;6095077;23;20180;-85
2023/06/18 05:11:21;;;;;;;6.95;6.25;;;;;;;22.14;45.44;95462.63;6095759;23;20648;-85
2023/06/18 05:14:11;;;;;;;6.85;6.20;;;;;;;22.34;44.17;95460.16;6094978;23;20289;-91
2023/06/18 05:16:42;;;;;;;8.57;7.28;;;;;;;22.33;43.30;95463.81;6092520;23;20219;-89
2023/06/18 05:19:20;;;;;;;8.50;7.68;;;;;;;22.29;43.12;95463.56;6091020;23;20524;-90
2023/06/18 05:21:50;;;;;;;7.57;6.82;;;;;;;22.24;43.15;95470.59;6091101;23;20235;-90
2023/06/18 05:24:21;;;;;;;7.38;6.68;;;;;;;22.23;43.33;95469.81;6091692;23;20263;-91
2023/06/18 05:26:54;;;;;;;7.82;6.95;;;;;;;22.33;43.27;95472.47;6092080;23;20181;-89
2023/06/18 05:29:25;;;;;;;9.25;8.25;;;;;;;22.46;42.75;95473.88;6091514;23;20177;-90
2023/06/18 05:32:20;;;;;;;9.55;8.55;;;;;;;22.54;43.23;95475.22;6091382;23;20183;-89
2023/06/18 05:35:01;;;;;;;9.23;7.78;;;;;;;22.62;43.32;95474.75;6091397;23;20196;-91
2023/06/18 05:37:28;;;;;;;8.85;7.95;;;;;;;22.66;43.06;95471.38;6091456;23;20172;-91
2023/06/18 05:40:18;;;;;;;9.13;8.02;;;;;;;22.64;43.21;95476.09;6090813;23;20227;-90
2023/06/18 05:43:02;;;;;;;;;;;;;;;;;;;;;
2023/06/18 05:45:40;;;;;;;7.82;7.13;;;;;;;22.15;42.26;95487.81;6039736;23;20292;-90
2023/06/18 05:48:24;;;;;;;9.75;7.50;;;;;;;22.26;42.80;95484.25;6090620;23;20715;-89
2023/06/18 05:51:11;;;;;;;7.82;7.13;;;;;;;22.40;43.28;95488.00;6090841;23;20176;-91
2023/06/18 05:53:53;;;;;;;8.10;7.30;;;;;;;22.47;42.10;95488.59;6091374;23;20185;-89
2023/06/18 05:56:43;;;;;;;8.80;7.43;;;;;;;22.64;42.66;95497.09;6090606;23;20192;-91
2023/06/18 06:05:26;;;;;;;7.50;6.80;;;;;;;22.90;41.71;95499.88;5986821;23;20219;-90
2023/06/18 06:10:43;;;;;;;7.47;6.78;;;;;;;23.02;42.23;95501.25;6090343;23;20180;-90
2023/06/18 06:13:32;;;;;;;7.03;6.43;;;;;;;22.98;41.22;95492.28;6089215;23;20364;-90
2023/06/18 06:16:08;;;;;;;7.35;6.65;;;;;;;23.01;41.82;95497.03;6089987;23;20196;-91
2023/06/18 06:21:46;;;;;;;8.10;7.30;;;;;;;23.27;41.49;95492.69;6090406;23;20176;-91
2023/06/18 06:24:40;;;;;;;7.57;6.97;;;;;;;23.37;40.15;95497.94;6058288;23;20204;-90
2023/06/18 06:27:23;;;;;;;6.70;6.10;;;;;;;23.38;40.52;95499.53;6090042;23;20570;-91
2023/06/18 06:29:49;;;;;;;6.88;6.28;;;;;;;23.04;39.19;95496.53;6089204;23;20420;-90
2023/06/18 06:32:20;;;;;;;7.63;6.80;;;;;;;23.08;40.93;95492.34;6089217;23;20188;-90
2023/06/18 06:35:06;;;;;;;6.30;5.80;;;;;;;23.24;40.86;95490.56;6089079;23;20275;-91
2023/06/18 06:38:05;;;;;;;6.72;6.20;;;;;;;23.42;40.95;95499.81;6089591;23;20160;-90
2023/06/18 06:40:35;;;;;;;7.78;6.50;;;;;;;23.53;40.69;95490.91;6077347;23;20912;-90
2023/06/18 06:46:19;;;;;;;7.45;6.22;;;;;;;23.68;39.83;95487.50;6085918;23;20211;-90
2023/06/18 06:48:59;;;;;;;8.10;6.68;;;;;;;23.73;39.80;95490.94;6088365;23;20180;-90
2023/06/18 06:51:40;;;;;;;9.13;6.05;;;;;;;23.57;36.91;95488.56;6088478;23;20172;-90
2023/06/18 06:54:15;;;;;;;6.32;5.82;;;;;;;23.37;36.72;95484.00;6091062;23;20153;-90
2023/06/18 06:56:48;;;;;;;6.57;6.00;;;;;;;23.46;38.97;95486.94;6092496;23;20192;-88
2023/06/18 06:59:23;;;;;;;6.97;6.28;;;;;;;23.64;39.13;95484.63;6093722;23;20176;-91
2023/06/18 07:02:30;;;;;;;6.57;6.07;;;;;;;23.60;36.61;95488.03;6093993;23;20179;-90
2023/06/18 07:14:45;;;;;;;7.10;6.00;;;;;;;23.63;36.36;95490.16;6145024;23;20234;-91
2023/06/18 08:29:59;;;;;;;4.90;4.50;;;;;;;26.07;29.40;95464.66;6152667;23;20190;-84
2023/06/18 08:32:25;;;;;;;5.05;4.75;;;;;;;26.17;29.52;95463.00;6152898;23;20166;-87
2023/06/18 08:34:59;;;;;;;5.70;5.10;;;;;;;26.22;29.12;95457.66;6154060;23;20547;-91
2023/06/18 08:37:56;;;;;;;5.82;5.10;;;;;;;26.39;29.48;95463.34;6150507;23;20167;-90
2023/06/18 09:25:31;;;;;;;5.85;5.28;;;;;;;28.25;27.43;95441.91;5933313;24;20203;-89
2023/06/18 09:28:37;;;;;;;6.50;6.00;;;;;;;28.50;27.52;95446.72;5995230;23;20281;-90
2023/06/18 09:34:47;;;;;;;5.97;5.38;;;;;;;28.42;27.12;95444.78;6080445;23;20175;-89
2023/06/18 09:38:05;;;;;;;6.72;6.00;;;;;;;28.64;27.62;95444.09;6150131;23;20174;-92
2023/06/18 09:41:11;;;;;;;5.68;5.18;;;;;;;28.83;26.61;95444.81;6072759;23;20178;-88
2023/06/18 09:44:07;;;;;;;6.18;5.68;;;;;;;28.84;26.60;95444.53;6105746;23;20181;-90
2023/06/18 09:46:43;;;;;;;6.18;5.53;;;;;;;28.93;26.85;95444.59;6144993;23;20179;-88
2023/06/18 09:49:22;;;;;;;6.60;6.00;;;;;;;29.04;26.33;95437.25;6148791;23;20174;-89
2023/06/18 09:52:00;;;;;;;6.32;5.82;;;;;;;28.77;26.12;95438.81;6148747;23;20257;-88
2023/06/18 09:54:58;;;;;;;7.55;6.85;;;;;;;29.04;26.68;95434.59;6149379;23;20238;-88
2023/06/18 10:00:33;;;;;;;6.93;6.00;;;;;;;29.39;26.23;95441.00;6147092;23;20197;-92
2023/06/18 10:03:25;;;;;;;6.28;5.78;;;;;;;29.54;25.99;95441.47;6150193;23;20504;-89
2023/06/18 10:06:24;;;;;;;6.47;5.88;;;;;;;29.57;26.24;95444.63;6149385;23;20202;-90
2023/06/18 10:09:23;;;;;;;5.93;5.43;;;;;;;29.58;26.40;95440.88;6059265;23;20238;-90
2023/06/18 10:18:11;;;;;;;6.78;5.45;;;;;;;29.73;26.53;95429.91;6148111;23;20179;-89
2023/06/18 10:21:12;;;;;;;6.72;5.65;;;;;;;29.78;26.17;95427.94;6149085;23;20166;-88
2023/06/18 10:23:50;;;;;;;5.97;5.57;;;;;;;29.71;26.05;95421.47;6144113;23;20225;-90
2023/06/18 10:26:36;;;;;;;6.13;5.63;;;;;;;29.80;26.29;95431.06;6149673;23;20190;-90
2023/06/18 10:29:10;;;;;;;6.68;6.05;;;;;;;29.88;25.90;95416.28;6129011;23;20174;-90
2023/06/18 10:31:52;;;;;;;5.93;5.40;;;;;;;30.03;25.79;95421.22;6148485;23;20177;-91
2023/06/18 10:34:30;;;;;;;6.57;5.90;;;;;;;30.09;25.95;95421.91;6149319;23;20178;-90
2023/06/18 10:37:27;;;;;;;7.10;5.78;;;;;;;29.99;25.71;95411.53;6149215;23;20225;-89
2023/06/18 10:40:18;;;;;;;5.97;5.47;;;;;;;30.09;24.97;95416.59;6149711;23;20175;-91
2023/06/18 10:43:29;;;;;;;6.03;5.53;;;;;;;30.05;25.04;95405.00;6149235;23;20159;-92
2023/06/18 10:46:26;;;;;;;5.97;5.55;;;;;;;30.18;24.84;95412.13;6149084;23;20214;-91
2023/06/18 10:49:48;;;;;;;6.00;5.38;;;;;;;30.25;25.35;95404.47;6139441;23;20202;-91
2023/06/18 10:52:49;;;;;;;6.32;5.80;;;;;;;30.12;25.08;95408.78;6148320;23;20175;-92
2023/06/18 10:56:11;;;;;;;6.43;5.82;;;;;;;30.36;25.54;95402.34;6148910;23;20273;-92
2023/06/18 10:59:03;;;;;;;6.03;5.35;;;;;;;30.52;24.40;95398.97;6149452;23;20245;-93
2023/06/18 11:09:10;;;;;;;6.00;5.43;;;;;;;30.35;24.78;95393.59;6030318;23;20249;-94
2023/06/18 11:15:36;;;;;;;6.32;5.78;;;;;;;30.40;25.13;95390.03;6133763;23;20226;-88
2023/06/18 11:18:26;;;;;;;8.15;5.95;;;;;;;30.45;24.83;95385.34;6150158;23;20222;-88
2023/06/18 11:27:16;;;;;;;9.13;8.35;;;;;;;30.94;24.60;95372.06;6026037;23;20545;-89
2023/06/18 11:29:46;;;;;;;6.50;6.05;;;;;;;30.71;23.43;95366.84;6029505;23;20252;-88
2023/06/18 11:32:46;;;;;;;5.93;5.45;;;;;;;30.72;23.74;95371.06;6028981;23;20552;-88
2023/06/18 11:35:58;;;;;;;6.45;5.85;;;;;;;30.90;24.04;95367.34;6072643;23;20217;-86
2023/06/18 11:38:47;;;;;;;5.72;5.30;;;;;;;30.93;23.75;95371.28;6148684;23;20183;-87
2023/06/18 11:41:27;;;;;;;7.28;6.00;;;;;;;31.08;24.84;95357.53;6148444;23;20170;-90
2023/06/18 11:47:00;;;;;;;7.25;6.60;;;;;;;30.85;23.95;95353.41;6146433;23;20179;-88
2023/06/18 11:49:26;;;;;;;6.45;5.90;;;;;;;31.01;23.49;95348.44;6144742;23;20179;-89
2023/06/18 11:51:59;;;;;;;13.80;12.63;;;;;;;31.12;23.79;95349.75;6148953;23;20510;-88
2023/06/18 11:54:50;;;;;;;;;;;;;;;;;;;;;
2023/06/18 11:57:24;;;;;;;6.63;6.03;;;;;;;30.92;23.65;95343.13;6150522;23;20654;-88
2023/06/18 12:00:12;;;;;;;7.00;6.10;;;;;;;30.90;23.68;95346.09;6150834;23;20155;-89
2023/06/18 12:02:44;;;;;;;6.13;5.63;;;;;;;30.81;23.76;95345.28;6150685;23;20182;-87
2023/06/18 12:05:27;;;;;;;10.75;8.20;;;;;;;30.87;23.82;95344.03;6150749;23;20201;-90
2023/06/18 12:08:15;;;;;;;6.93;6.43;;;;;;;30.89;24.53;95338.41;6149987;23;20285;-88
2023/06/18 12:13:47;;;;;;;7.28;6.43;;;;;;;30.97;23.91;95334.22;6123122;23;20226;-89
2023/06/18 12:16:23;;;;;;;10.00;6.13;;;;;;;31.02;23.73;95332.16;6150492;23;20191;-90
2023/06/18 12:19:09;;;;;;;7.45;6.80;;;;;;;31.29;24.39;95322.34;6150760;23;20225;-87
2023/06/18 12:21:36;;;;;;;7.57;6.88;;;;;;;31.50;24.01;95328.59;6150305;23;20183;-90
2023/06/18 12:24:15;;;;;;;7.00;6.40;;;;;;;31.67;23.50;95320.59;6150816;23;20177;-91
2023/06/18 12:26:56;;;;;;;6.95;6.32;;;;;;;31.57;22.86;95318.22;6150323;23;20155;-90
2023/06/18 12:29:27;;;;;;;6.50;6.03;;;;;;;31.62;23.22;95315.41;6150128;23;20194;-91
2023/06/18 12:32:02;;;;;;;10.75;9.30;;;;;;;31.75;23.79;95314.44;6150086;23;20179;-88
2023/06/18 12:34:37;;;;;;;7.45;6.85;;;;;;;31.74;22.67;95310.25;6150690;23;20270;-91
2023/06/18 12:37:04;;;;;;;7.20;5.82;;;;;;;31.65;22.69;95314.00;6150621;23;20245;-92
2023/06/18 12:39:32;;;;;;;7.35;6.20;;;;;;;31.69;23.31;95309.63;6151146;23;20175;-91
2023/06/18 12:42:00;;;;;;;7.55;6.10;;;;;;;31.67;22.54;95309.94;6150243;23;20653;-90
2023/06/18 12:44:28;;;;;;;6.78;6.03;;;;;;;31.62;23.35;95310.06;6150804;23;20626;-87
2023/06/18 12:47:30;;;;;;;8.30;6.78;;;;;;;31.61;23.44;95300.53;6150190;23;20175;-90
2023/06/18 12:49:59;;;;;;;6.95;6.30;;;;;;;31.63;23.57;95300.22;6151048;23;20212;-86
2023/06/18 12:53:01;;;;;;;10.15;6.30;;;;;;;31.32;22.90;95298.56;6155542;23;20175;-91
2023/06/18 13:02:57;;;;;;;6.80;6.30;;;;;;;31.49;23.07;95289.75;6115300;23;20692;-91
2023/06/18 13:05:34;;;;;;;6.60;5.95;;;;;;;31.46;23.27;95269.88;6145101;23;20199;-91
2023/06/18 13:08:25;;;;;;;6.22;5.72;;;;;;;31.66;23.27;95287.09;6150584;23;20217;-91
2023/06/18 13:11:10;;;;;;;;;;;;;;;;;;;;;
2023/06/18 13:13:50;;;;;;;10.02;9.15;;;;;;;31.79;23.71;95277.31;6143507;23;20269;-92
2023/06/18 13:17:09;;;;;;;8.43;7.82;;;;;;;31.87;23.54;95276.53;6150503;23;20206;-91
2023/06/18 13:22:56;;;;;;;7.10;6.60;;;;;;;32.02;22.28;95267.22;6133158;23;20230;-92
2023/06/18 13:25:44;;;;;;;8.18;6.15;;;;;;;32.00;22.88;95267.53;6150225;23;20209;-91
2023/06/18 13:28:24;;;;;;;6.32;5.82;;;;;;;31.96;22.84;95261.28;6150738;23;20222;-91
2023/06/18 13:30:51;;;;;;;6.38;5.88;;;;;;;31.90;23.54;95266.03;6150062;23;20190;-91
2023/06/18 13:33:19;;;;;;;6.00;5.50;;;;;;;32.01;23.24;95268.31;6150612;23;20167;-91
2023/06/18 13:35:56;;;;;;;7.68;7.03;;;;;;;32.03;23.41;95258.91;6149919;23;20187;-91
2023/06/18 13:38:22;;;;;;;9.88;8.90;;;;;;;32.03;22.81;95260.78;6150032;23;20170;-90
2023/06/18 13:40:49;;;;;;;8.55;7.82;;;;;;;32.01;22.77;95250.44;6149916;23;20520;-91
2023/06/18 13:43:15;;;;;;;6.32;5.72;;;;;;;32.01;22.85;95255.78;6150707;23;20167;-91
2023/06/18 13:45:42;;;;;;;6.30;5.70;;;;;;;32.06;23.01;95249.50;6150545;23;20195;-91
2023/06/18 13:48:15;;;;;;;6.85;6.25;;;;;;;31.83;22.63;95247.09;6150387;23;20195;-91
2023/06/18 13:53:45;;;;;;;5.93;5.53;;;;;;;31.58;23.47;95248.69;6141858;23;20178;-89
2023/06/18 13:56:20;;;;;;;6.85;6.15;;;;;;;31.59;23.54;95244.94;6149862;23;20186;-90
2023/06/18 13:58:47;;;;;;;6.45;5.85;;;;;;;31.69;23.08;95251.84;6151188;23;20544;-88
2023/06/18 14:05:28;;;;;;;7.82;6.15;;;;;;;31.52;23.66;95246.53;6013332;23;20208;-91
2023/06/18 14:08:29;;;;;;;;;;;;;;;;;;;;;
2023/06/18 14:11:02;;;;;;;6.60;6.00;;;;;;;31.70;23.95;95241.97;6149184;23;20158;-91
2023/06/18 14:13:45;;;;;;;6.93;6.20;;;;;;;31.59;23.78;95244.16;6150980;23;20177;-91
2023/06/18 14:16:20;;;;;;;6.32;5.72;;;;;;;31.49;23.89;95241.84;6149589;23;20195;-89
2023/06/18 14:19:29;;;;;;;6.65;6.10;;;;;;;31.64;24.00;95237.88;6149550;23;20722;-91
2023/06/18 14:22:15;;;;;;;7.85;6.55;;;;;;;31.64;23.66;95238.66;6144755;23;20183;-87
2023/06/18 14:24:46;;;;;;;7.03;6.53;;;;;;;31.53;23.68;95238.25;6150182;23;20191;-89
2023/06/18 14:28:02;;;;;;;8.48;7.78;;;;;;;31.55;24.92;95236.06;6149491;23;20174;-92
2023/06/18 14:30:29;;;;;;;6.82;6.22;;;;;;;31.60;24.69;95243.06;6017393;23;20182;-88
2023/06/18 14:33:03;;;;;;;7.00;6.43;;;;;;;31.52;23.83;95241.22;6110157;23;20182;-90
2023/06/18 14:41:32;;;;;;;6.60;6.10;;;;;;;31.17;24.59;95249.28;6086553;23;20172;-88
2023/06/18 14:49:52;;;;;;;6.53;6.03;;;;;;;31.12;24.42;95257.41;6147608;23;20307;-87
2023/06/18 14:52:19;;;;;;;6.03;5.53;;;;;;;31.23;24.79;95249.88;6150579;23;20170;-86
2023/06/18 14:55:00;;;;;;;7.72;5.85;;;;;;;31.29;24.40;95247.84;6148888;23;20716;-87
2023/06/18 15:01:01;;;;;;;6.50;5.90;;;;;;;31.17;24.31;95243.97;6148546;23;20175;-88
2023/06/18 15:09:55;;;;;;;6.70;6.20;;;;;;;30.96;24.65;95237.69;6125679;23;20245;-90
2023/06/18 15:16:04;;;;;;;6.10;5.50;;;;;;;30.76;24.68;95239.09;6067266;23;20238;-89
2023/06/18 15:22:10;;;;;;;8.48;5.70;;;;;;;30.66;24.39;95244.72;6021811;23;20803;-90
2023/06/18 15:38:50;;;;;;;6.25;5.80;;;;;;;30.99;24.66;95230.94;6122075;23;20819;-89
2023/06/18 15:41:26;;;;;;;17.92;16.52;;;;;;;31.02;24.60;95225.78;6126846;23;20184;-85
2023/06/18 15:44:07;;;;;;;9.55;8.85;;;;;;;31.01;24.01;95226.88;6128821;23;20187;-87
2023/06/18 15:46:43;;;;;;;8.35;5.95;;;;;;;30.91;23.72;95219.22;6157115;23;20199;-87
2023/06/18 15:49:17;;;;;;;6.40;5.75;;;;;;;30.89;24.55;95229.41;6157626;23;20618;-85
2023/06/18 15:52:15;;;;;;;6.85;6.25;;;;;;;30.92;24.44;95218.91;6160370;23;20646;-87
2023/06/18 15:57:24;;;;;;;6.50;5.95;;;;;;;30.71;24.47;95217.19;6154805;23;20257;-87
2023/06/18 16:03:01;;;;;;;;;;;;;;;;;;;;;
2023/06/18 16:06:00;;;;;;;6.63;6.13;;;;;;;30.89;25.29;95211.56;6151405;23;20201;-87
2023/06/18 16:08:39;;;;;;;;;;;;;;;;;;;;;
2023/06/18 16:11:12;;;;;;;7.65;6.95;;;;;;;30.64;24.58;95208.91;6155301;23;20170;-87
2023/06/18 16:14:02;;;;;;;6.75;6.13;;;;;;;30.56;25.04;95215.78;6156837;23;20159;-87
2023/06/18 16:16:33;;;;;;;6.93;6.43;;;;;;;30.46;25.85;95213.41;6155426;23;20587;-88
2023/06/18 16:19:14;;;;;;;6.53;5.93;;;;;;;30.37;26.13;95212.63;6152140;23;20181;-88
2023/06/18 16:21:40;;;;;;;7.55;6.72;;;;;;;30.32;25.83;95215.41;6151409;23;20167;-86
2023/06/18 16:24:16;;;;;;;6.90;6.40;;;;;;;30.21;26.12;95220.25;6159669;23;20654;-87
2023/06/18 16:26:44;;;;;;;7.43;6.45;;;;;;;30.04;26.74;95210.34;6161712;23;20198;-86
2023/06/18 16:34:56;;;;;;;6.75;6.25;;;;;;;29.86;26.23;95214.81;6152602;23;20203;-87
2023/06/18 16:37:33;;;;;;;6.43;5.82;;;;;;;29.86;26.13;95209.50;6155612;23;20494;-87
2023/06/18 16:40:21;;;;;;;6.63;6.03;;;;;;;29.71;26.36;95214.44;6154587;23;20834;-88
2023/06/18 16:42:55;;;;;;;7.07;5.78;;;;;;;29.58;26.58;95213.47;6156167;23;20635;-87
2023/06/18 16:45:36;;;;;;;;;;;;;;;;;;;;;
2023/06/18 16:50:54;;;;;;;8.13;6.18;;;;;;;29.70;27.13;95211.00;6066033;23;20188;-88
2023/06/18 16:53:42;;;;;;;6.75;5.97;;;;;;;29.74;26.76;95219.91;6066868;23;20164;-88
2023/06/18 16:59:16;;;;;;;6.90;6.30;;;;;;;29.69;26.64;95213.97;6076642;23;20240;-90
2023/06/18 17:01:47;;;;;;;6.57;5.97;;;;;;;29.70;26.76;95220.84;6150430;23;20202;-89
2023/06/18 17:04:24;;;;;;;6.80;6.20;;;;;;;29.53;27.32;95213.59;6150813;23;20189;-87
2023/06/18 17:06:51;;;;;;;7.93;6.95;;;;;;;29.39;27.59;95207.56;6150493;23;20226;-87
2023/06/18 17:09:22;;;;;;;6.97;6.35;;;;;;;29.26;27.43;95209.19;6151279;23;20199;-87
2023/06/18 17:11:55;;;;;;;6.32;5.82;;;;;;;29.18;27.69;95220.56;6150889;23;20163;-87
2023/06/18 17:14:41;;;;;;;6.53;6.00;;;;;;;29.04;27.93;95217.19;6150349;23;20170;-88
2023/06/18 17:17:21;;;;;;;6.40;5.90;;;;;;;28.93;27.89;95216.63;6150871;23;20155;-87
2023/06/18 17:20:23;;;;;;;7.00;5.70;;;;;;;28.84;28.23;95213.16;6149875;23;20205;-88
2023/06/18 17:22:50;;;;;;;7.43;6.20;;;;;;;28.77;28.40;95215.41;6150183;23;20228;-88
2023/06/18 17:25:40;;;;;;;10.95;6.43;;;;;;;28.72;28.04;95218.16;6151326;23;20202;-90
2023/06/18 17:28:08;;;;;;;6.30;5.72;;;;;;;28.74;27.96;95216.00;6150347;23;20262;-87
2023/06/18 17:30:39;;;;;;;6.68;6.07;;;;;;;28.67;27.95;95210.34;6150006;23;20199;-89
2023/06/18 17:33:06;;;;;;;6.30;5.80;;;;;;;28.70;28.51;95212.38;6150769;23;20284;-87
2023/06/18 17:35:42;;;;;;;7.85;6.00;;;;;;;28.66;28.45;95216.72;6150475;23;20195;-88
2023/06/18 17:38:15;;;;;;;6.78;6.18;;;;;;;28.61;28.36;95214.19;6150662;23;20468;-88
2023/06/18 17:40:44;;;;;;;6.50;6.00;;;;;;;28.46;28.51;95210.78;6150000;23;20182;-87
2023/06/18 17:43:43;;;;;;;7.88;6.25;;;;;;;28.39;28.38;95221.00;6149259;23;20653;-89
2023/06/18 17:46:21;;;;;;;7.80;5.93;;;;;;;28.42;28.65;95222.28;6150163;23;20199;-88
2023/06/18 17:48:58;;;;;;;6.60;6.00;;;;;;;28.44;28.66;95220.91;6150077;23;20547;-89
2023/06/18 17:51:30;;;;;;;6.63;6.03;;;;;;;28.45;28.40;95224.34;6150231;23;20284;-88
2023/06/18 17:54:00;;;;;;;7.65;6.90;;;;;;;28.37;28.85;95227.66;6151881;23;20162;-88
2023/06/18 17:56:29;;;;;;;6.90;6.25;;;;;;;28.32;28.71;95222.47;6150027;23;20191;-87
2023/06/18 18:01:49;;;;;;;7.03;6.20;;;;;;;28.28;29.04;95232.13;6148710;23;20233;-90
2023/06/18 18:04:21;;;;;;;7.22;6.30;;;;;;;28.29;29.16;95237.09;6150753;23;20193;-88
2023/06/18 18:10:00;;;;;;;6.45;5.95;;;;;;;28.14;29.48;95238.16;6147008;23;20198;-89
2023/06/18 18:12:33;;;;;;;6.53;5.93;;;;;;;28.11;29.23;95237.97;6152218;23;20217;-90
2023/06/18 18:17:53;;;;;;;7.28;5.95;;;;;;;28.08;29.29;95241.22;6147077;23;20884;-88
2023/06/18 18:21:04;;;;;;;6.93;6.03;;;;;;;27.97;29.32;95239.84;6149910;23;20166;-88